Time;durP1;ratioP1;P1;durP2;ratioP2;P2;SDS_P1;SDS_P2;PMS_P1;PMS_P2;Temp;Humidity;BMP_temperature;BMP_pressure;BME280_temperature;BME280_humidity;BME280_pressure;Samples;Min_cycle;Max_cycle;Signal;HPM_P1;HPM_P2
2021/04/10 00:02:13;;;;;;;22.93;19.97;;;7.30;99.90;;;;;;5020152;28;20515;-57
2021/04/10 00:04:39;;;;;;;21.07;18.87;;;7.30;2.90;;;;;;5005699;28;20539;-59
2021/04/10 00:07:08;;;;;;;23.57;19.67;;;7.30;99.90;;;;;;5001842;28;20468;-59
2021/04/10 00:09:37;;;;;;;20.27;18.30;;;7.30;99.90;;;;;;5012927;28;20889;-59
2021/04/10 00:12:06;;;;;;;22.37;20.17;;;7.30;1.00;;;;;;5016862;28;20465;-60
2021/04/10 00:14:32;;;;;;;21.80;19.67;;;7.30;1.00;;;;;;5011590;28;20468;-60
2021/04/10 00:16:59;;;;;;;22.97;20.57;;;7.30;1.00;;;;;;5000524;28;20473;-60
2021/04/10 00:19:25;;;;;;;21.77;19.40;;;7.30;1.00;;;;;;5000655;28;20940;-60
2021/04/10 00:21:52;;;;;;;22.67;20.17;;;7.30;68.60;;;;;;5011406;28;20936;-60
2021/04/10 00:24:21;;;;;;;25.33;20.63;;;7.30;99.90;;;;;;5016531;28;20460;-60
2021/04/10 00:26:48;;;;;;;25.07;20.67;;;7.40;99.90;;;;;;5011925;28;20470;-60
2021/04/10 00:29:15;;;;;;;25.07;22.37;;;7.30;99.90;;;;;;5006217;28;20464;-59
2021/04/10 00:31:42;;;;;;;22.27;19.87;;;7.30;99.90;;;;;;5000825;28;20804;-60
2021/04/10 00:34:08;;;;;;;24.83;21.40;;;7.20;99.90;;;;;;5020128;28;20527;-60
2021/04/10 00:36:37;;;;;;;24.03;21.70;;;7.20;99.90;;;;;;5020113;28;20776;-60
2021/04/10 00:39:05;;;;;;;24.47;21.90;;;7.30;99.90;;;;;;5019953;28;20467;-61
2021/04/10 00:41:32;;;;;;;26.50;23.47;;;7.20;99.90;;;;;;5009584;28;20475;-60
2021/04/10 00:43:58;;;;;;;24.37;21.87;;;7.20;99.90;;;;;;5000913;28;20465;-61
2021/04/10 00:46:28;;;;;;;26.40;23.03;;;7.30;99.90;;;;;;5000387;28;20432;-60
2021/04/10 00:48:55;;;;;;;27.30;23.17;;;7.20;99.90;;;;;;5000471;28;20464;-60
2021/04/10 00:51:23;;;;;;;25.47;22.67;;;7.20;99.90;;;;;;5007944;28;20435;-60
2021/04/10 00:53:51;;;;;;;28.93;25.10;;;7.10;99.90;;;;;;5020194;28;20448;-60
2021/04/10 00:56:18;;;;;;;27.27;24.40;;;7.10;99.90;;;;;;5019868;28;20538;-60
2021/04/10 00:58:45;;;;;;;29.30;25.80;;;7.10;99.90;;;;;;5017863;28;20456;-60
2021/04/10 01:01:16;;;;;;;30.43;26.20;;;7.10;99.90;;;;;;5005715;28;20499;-60
2021/04/10 01:03:43;;;;;;;30.73;27.30;;;7.00;99.90;;;;;;5000234;28;20500;-60
2021/04/10 01:06:11;;;;;;;30.80;27.27;;;7.00;99.90;;;;;;5003425;28;20485;-60
2021/04/10 01:08:38;;;;;;;28.43;25.20;;;7.00;99.90;;;;;;5013842;28;20487;-60
2021/04/10 01:11:21;;;;;;;34.20;27.70;;;7.10;99.90;;;;;;5018447;28;20967;-60
2021/04/10 01:13:57;;;;;;;30.00;25.53;;;7.10;99.90;;;;;;5000619;28;20460;-60
2021/04/10 01:16:29;;;;;;;27.60;24.70;;;7.10;99.90;;;;;;5004406;28;20472;-60
2021/04/10 01:19:07;;;;;;;27.40;24.60;;;7.00;99.90;;;;;;5000070;28;20440;-59
2021/04/10 01:21:40;;;;;;;28.30;25.30;;;7.00;99.90;;;;;;5000177;28;20504;-59
2021/04/10 01:24:40;;;;;;;28.50;25.50;;;7.00;99.90;;;;;;5000564;28;20469;-60
2021/04/10 01:27:33;;;;;;;29.57;26.50;;;7.10;99.90;;;;;;4927387;29;20456;-60
2021/04/10 01:30:05;;;;;;;34.57;28.67;;;7.10;99.90;;;;;;5005188;28;20589;-60
2021/04/10 01:32:35;;;;;;;30.60;26.73;;;7.10;99.90;;;;;;5016303;28;20920;-60
2021/04/10 01:35:06;;;;;;;29.43;26.53;;;7.10;99.90;;;;;;4999795;28;20469;-60
2021/04/10 01:37:37;;;;;;;32.00;27.93;;;7.10;99.90;;;;;;4999611;28;20473;-61
2021/04/10 01:40:09;;;;;;;29.10;25.90;;;7.10;99.90;;;;;;5002712;28;20535;-61
2021/04/10 01:42:40;;;;;;;33.60;26.70;;;7.10;99.90;;;;;;5011737;28;20499;-60
2021/04/10 01:45:10;;;;;;;32.40;28.93;;;7.10;99.90;;;;;;5010563;28;20458;-60
2021/04/10 01:47:39;;;;;;;29.13;26.00;;;7.10;99.90;;;;;;5018984;28;20487;-61
2021/04/10 01:50:06;;;;;;;32.80;28.93;;;7.10;99.90;;;;;;5018863;28;20464;-60
2021/04/10 01:52:37;;;;;;;51.37;39.07;;;7.00;99.90;;;;;;5018968;28;20526;-61
2021/04/10 01:55:05;;;;;;;38.97;32.60;;;7.10;99.90;;;;;;5018082;28;20797;-61
2021/04/10 01:57:32;;;;;;;34.00;30.30;;;7.10;99.90;;;;;;5018450;28;20460;-61
2021/04/10 01:59:59;;;;;;;35.40;30.33;;;7.00;99.90;;;;;;5019006;28;20456;-62
2021/04/10 02:02:27;;;;;;;34.07;27.70;;;7.10;99.90;;;;;;5017846;28;20834;-61
2021/04/10 02:04:54;;;;;;;29.63;26.40;;;7.00;99.90;;;;;;5007015;28;20534;-61
2021/04/10 02:07:23;;;;;;;30.93;27.60;;;7.00;99.90;;;;;;5001612;28;20494;-61
2021/04/10 02:09:51;;;;;;;30.50;27.30;;;7.00;99.90;;;;;;5013139;28;20476;-61
2021/04/10 02:12:21;;;;;;;29.87;26.93;;;7.10;99.90;;;;;;4999291;28;20465;-61
2021/04/10 02:14:49;;;;;;;31.30;27.70;;;7.10;99.90;;;;;;5014340;28;20816;-62
2021/04/10 02:17:17;;;;;;;33.27;29.77;;;7.10;99.90;;;;;;5016248;28;20550;-61
2021/04/10 02:19:46;;;;;;;38.87;28.97;;;7.10;99.90;;;;;;5018711;28;20468;-61
2021/04/10 02:22:13;;;;;;;33.50;29.17;;;7.10;99.90;;;;;;5011575;28;20492;-61
2021/04/10 02:24:39;;;;;;;36.53;30.30;;;7.10;99.90;;;;;;5016291;28;20952;-61
2021/04/10 02:27:10;;;;;;;33.90;29.57;;;7.10;99.90;;;;;;5017781;28;20852;-61
2021/04/10 02:29:37;;;;;;;32.30;29.00;;;7.10;99.90;;;;;;5003212;28;20453;-61
2021/04/10 02:32:08;;;;;;;31.70;28.47;;;7.10;99.90;;;;;;5011472;28;20838;-61
2021/04/10 02:34:42;;;;;;;34.83;30.87;;;7.10;99.90;;;;;;5007858;28;20460;-61
2021/04/10 02:37:10;;;;;;;34.30;29.33;;;7.10;99.90;;;;;;5007201;28;20468;-63
2021/04/10 02:39:40;;;;;;;36.30;31.63;;;7.10;99.90;;;;;;5017981;28;20460;-61
2021/04/10 02:42:12;;;;;;;44.87;35.70;;;7.10;99.90;;;;;;5019505;28;20990;-61
2021/04/10 02:44:45;;;;;;;33.30;30.00;;;7.10;99.90;;;;;;5020100;28;20464;-61
2021/04/10 02:47:14;;;;;;;31.73;27.53;;;7.10;99.90;;;;;;5018813;28;20463;-61
2021/04/10 02:49:47;;;;;;;31.07;27.77;;;7.10;99.90;;;;;;5018595;28;20446;-61
2021/04/10 02:52:16;;;;;;;32.73;29.23;;;7.10;99.90;;;;;;5018576;28;20748;-61
2021/04/10 02:54:48;;;;;;;32.50;29.10;;;7.10;99.90;;;;;;5017666;28;20498;-61
2021/04/10 02:57:18;;;;;;;33.40;30.00;;;7.00;99.90;;;;;;5017311;28;20467;-61
2021/04/10 02:59:49;;;;;;;33.90;30.40;;;7.00;99.90;;;;;;5017763;28;20463;-61
2021/04/10 03:02:16;;;;;;;38.23;33.77;;;7.00;99.90;;;;;;5018041;28;20629;-61
2021/04/10 03:04:45;;;;;;;34.43;30.77;;;7.00;99.90;;;;;;5005009;28;20475;-62
2021/04/10 03:07:15;;;;;;;35.93;31.60;;;7.00;99.90;;;;;;5017097;28;20776;-62
2021/04/10 03:09:44;;;;;;;38.90;34.07;;;6.90;99.90;;;;;;5017927;28;20460;-62
2021/04/10 03:12:12;;;;;;;39.03;33.80;;;6.90;99.90;;;;;;5018147;28;20486;-61
2021/04/10 03:14:40;;;;;;;38.23;34.03;;;6.90;99.90;;;;;;5017190;28;20495;-61
2021/04/10 03:17:08;;;;;;;36.07;32.07;;;6.90;99.90;;;;;;5017731;28;20499;-61
2021/04/10 03:19:36;;;;;;;36.80;32.97;;;6.90;99.90;;;;;;5017631;28;20474;-61
2021/04/10 03:22:03;;;;;;;43.13;36.77;;;6.90;99.90;;;;;;5017942;28;20492;-62
2021/04/10 03:24:31;;;;;;;39.57;35.37;;;6.90;99.90;;;;;;5016920;28;20564;-62
2021/04/10 03:26:57;;;;;;;37.63;33.67;;;6.90;99.90;;;;;;5017280;28;20464;-61
2021/04/10 03:29:25;;;;;;;39.30;32.50;;;6.90;99.90;;;;;;5017571;28;20479;-61
2021/04/10 03:31:51;;;;;;;41.13;36.73;;;6.90;99.90;;;;;;5017199;28;20529;-61
2021/04/10 03:34:19;;;;;;;36.50;32.57;;;6.90;99.90;;;;;;5017161;28;20773;-61
2021/04/10 03:36:46;;;;;;;38.00;33.90;;;7.00;99.90;;;;;;5017340;28;20904;-61
2021/04/10 03:39:13;;;;;;;38.37;34.07;;;6.90;99.90;;;;;;5008673;28;20460;-62
2021/04/10 03:41:41;;;;;;;39.30;35.30;;;6.90;99.90;;;;;;4997455;28;20464;-62
2021/04/10 03:44:08;;;;;;;39.67;35.67;;;7.00;99.90;;;;;;4997121;28;20504;-62
2021/04/10 03:46:36;;;;;;;43.50;37.33;;;6.90;99.90;;;;;;4997775;28;20476;-61
2021/04/10 03:49:05;;;;;;;36.10;32.27;;;6.90;99.90;;;;;;4998029;28;20564;-62
2021/04/10 03:51:32;;;;;;;36.67;32.70;;;6.90;99.90;;;;;;4998141;28;20465;-62
2021/04/10 03:53:59;;;;;;;37.63;33.93;;;6.90;99.90;;;;;;4997453;28;20457;-61
2021/04/10 03:56:25;;;;;;;37.07;33.10;;;6.90;99.90;;;;;;4997823;28;20902;-61
2021/04/10 03:58:53;;;;;;;37.17;33.17;;;6.90;99.90;;;;;;5002600;28;20827;-61
2021/04/10 04:01:20;;;;;;;41.63;35.63;;;6.90;99.90;;;;;;5017280;28;20562;-61
2021/04/10 04:03:47;;;;;;;39.20;35.07;;;6.90;99.90;;;;;;5009287;28;20497;-62
2021/04/10 04:06:14;;;;;;;39.70;32.47;;;6.90;99.90;;;;;;5013347;28;20471;-61
2021/04/10 04:08:41;;;;;;;41.70;35.20;;;6.90;99.90;;;;;;5016639;28;20488;-61
2021/04/10 04:11:07;;;;;;;38.43;34.13;;;7.00;99.90;;;;;;5017467;28;20463;-61
2021/04/10 04:13:34;;;;;;;39.77;35.60;;;7.00;99.90;;;;;;5016535;28;20460;-61
2021/04/10 04:16:01;;;;;;;41.43;35.43;;;7.00;99.90;;;;;;5017549;28;20464;-61
2021/04/10 04:18:28;;;;;;;43.00;34.97;;;7.10;99.90;;;;;;5017301;28;20459;-61
2021/04/10 04:20:54;;;;;;;40.40;35.50;;;7.10;99.90;;;;;;5017015;28;20471;-61
2021/04/10 04:23:21;;;;;;;42.20;34.67;;;7.00;99.90;;;;;;5016351;28;20466;-61
2021/04/10 04:25:48;;;;;;;37.83;33.80;;;7.00;99.90;;;;;;5017165;28;20558;-61
2021/04/10 04:28:14;;;;;;;40.83;35.63;;;7.00;99.90;;;;;;5017320;28;20881;-60
2021/04/10 04:30:41;;;;;;;39.50;34.80;;;7.00;99.90;;;;;;5016559;28;20467;-61
2021/04/10 04:33:08;;;;;;;39.90;35.60;;;7.00;99.90;;;;;;5016661;28;20546;-61
2021/04/10 04:35:34;;;;;;;39.87;35.10;;;7.00;99.90;;;;;;5017626;28;20470;-61
2021/04/10 04:38:01;;;;;;;41.80;34.97;;;7.00;99.90;;;;;;5020393;28;20893;-61
2021/04/10 04:40:28;;;;;;;40.93;36.33;;;7.00;99.90;;;;;;5001670;28;20468;-61
2021/04/10 04:42:54;;;;;;;43.33;38.17;;;7.00;99.90;;;;;;5000758;28;20838;-61
2021/04/10 04:45:21;;;;;;;41.63;36.60;;;6.90;99.90;;;;;;5001050;28;20465;-61
2021/04/10 04:47:47;;;;;;;47.80;39.00;;;7.00;99.90;;;;;;5000970;28;20518;-61
2021/04/10 04:50:17;;;;;;;46.63;39.77;;;6.90;99.90;;;;;;5000902;28;20881;-61
2021/04/10 04:52:44;;;;;;;48.50;39.80;;;7.00;99.90;;;;;;5000892;28;20464;-60
2021/04/10 04:55:11;;;;;;;49.37;39.43;;;6.90;99.90;;;;;;5000317;28;20468;-60
2021/04/10 04:57:38;;;;;;;49.27;39.23;;;6.90;99.90;;;;;;5000535;28;20476;-61
2021/04/10 05:00:05;;;;;;;50.27;40.57;;;6.90;99.90;;;;;;5014820;28;20464;-61
2021/04/10 05:02:32;;;;;;;51.37;42.27;;;6.90;99.90;;;;;;5017843;28;20960;-62
2021/04/10 05:04:59;;;;;;;50.57;42.47;;;6.90;99.90;;;;;;5008921;28;20456;-61
2021/04/10 05:07:26;;;;;;;49.57;40.67;;;6.90;99.90;;;;;;5012127;28;20828;-61
2021/04/10 05:09:52;;;;;;;51.13;39.83;;;6.90;99.90;;;;;;5015183;28;20456;-61
2021/04/10 05:12:19;;;;;;;51.50;42.00;;;6.90;99.90;;;;;;5020396;28;20448;-63
2021/04/10 05:14:45;;;;;;;53.47;41.37;;;6.90;99.90;;;;;;5019833;28;20452;-61
2021/04/10 05:17:14;;;;;;;52.00;41.70;;;6.90;99.90;;;;;;5019666;28;20463;-61
2021/04/10 05:19:40;;;;;;;51.30;42.97;;;6.90;99.90;;;;;;5019910;28;20754;-61
2021/04/10 05:22:07;;;;;;;51.77;42.63;;;6.90;99.90;;;;;;5018900;28;20532;-61
2021/04/10 05:24:34;;;;;;;51.03;39.80;;;6.90;99.90;;;;;;5019444;28;20463;-61
2021/04/10 05:27:01;;;;;;;54.23;41.30;;;7.00;99.90;;;;;;5019645;28;20464;-61
2021/04/10 05:29:27;;;;;;;51.77;42.60;;;7.00;99.90;;;;;;5019609;28;20518;-61
2021/04/10 05:31:55;;;;;;;51.77;41.77;;;7.00;99.90;;;;;;5019545;28;20630;-61
2021/04/10 05:34:21;;;;;;;48.60;40.27;;;7.00;99.90;;;;;;5019759;28;20724;-61
2021/04/10 05:36:48;;;;;;;49.90;41.47;;;6.90;99.90;;;;;;5019643;28;20464;-61
2021/04/10 05:39:14;;;;;;;54.23;41.77;;;6.90;99.90;;;;;;5008427;28;20523;-61
2021/04/10 05:41:42;;;;;;;54.30;42.80;;;6.90;99.90;;;;;;4999641;28;20465;-61
2021/04/10 05:44:08;;;;;;;53.93;42.03;;;7.00;99.90;;;;;;5015742;28;20496;-61
2021/04/10 05:46:35;;;;;;;53.13;41.60;;;6.90;99.90;;;;;;5018702;28;20438;-61
2021/04/10 05:49:01;;;;;;;52.90;41.70;;;6.90;99.90;;;;;;5018704;28;20904;-61
2021/04/10 05:51:28;;;;;;;53.90;40.80;;;6.90;99.90;;;;;;5018809;28;20468;-61
2021/04/10 05:53:55;;;;;;;51.47;43.97;;;7.00;99.90;;;;;;5019084;28;20456;-61
2021/04/10 05:56:24;;;;;;;54.30;40.83;;;7.00;99.90;;;;;;5019488;28;20765;-61
2021/04/10 05:58:51;;;;;;;50.23;40.70;;;7.00;99.90;;;;;;5018784;28;20456;-61
2021/04/10 06:01:18;;;;;;;52.17;41.20;;;7.10;99.90;;;;;;5018790;28;20908;-61
2021/04/10 06:03:45;;;;;;;51.70;41.10;;;7.00;99.90;;;;;;5008273;28;20494;-62
2021/04/10 06:06:12;;;;;;;53.40;42.10;;;7.00;99.90;;;;;;5007113;28;20543;-62
2021/04/10 06:08:38;;;;;;;50.47;41.97;;;7.10;99.90;;;;;;5013770;28;20457;-61
2021/04/10 06:11:05;;;;;;;49.77;41.00;;;7.20;99.90;;;;;;4999283;28;20532;-61
2021/04/10 06:13:31;;;;;;;52.10;39.97;;;7.30;99.90;;;;;;5008229;28;20455;-62
2021/04/10 06:16:04;;;;;;;52.80;41.17;;;7.40;99.90;;;;;;5019103;28;20460;-62
2021/04/10 06:18:31;;;;;;;56.77;40.50;;;7.40;99.90;;;;;;5018684;28;20896;-61
2021/04/10 06:20:57;;;;;;;50.73;40.27;;;7.60;99.90;;;;;;5017969;28;20459;-61
2021/04/10 06:23:24;;;;;;;53.83;41.57;;;7.70;99.90;;;;;;5018639;28;20474;-61
2021/04/10 06:25:50;;;;;;;56.10;41.90;;;7.80;99.90;;;;;;5018708;28;20571;-61
2021/04/10 06:28:17;;;;;;;51.47;41.83;;;7.90;99.90;;;;;;5018250;28;20920;-61
2021/04/10 06:30:43;;;;;;;52.23;40.87;;;8.00;99.90;;;;;;5018370;28;20460;-61
2021/04/10 06:33:14;;;;;;;53.33;42.50;;;8.00;99.90;;;;;;5017786;28;20492;-61
2021/04/10 06:35:40;;;;;;;52.40;40.00;;;8.10;99.90;;;;;;5018509;28;20939;-61
2021/04/10 06:38:07;;;;;;;52.30;39.20;;;8.20;99.90;;;;;;5016410;28;20467;-61
2021/04/10 06:40:34;;;;;;;48.10;39.30;;;8.40;99.90;;;;;;4998498;28;20504;-61
2021/04/10 06:43:02;;;;;;;51.60;41.07;;;8.60;99.90;;;;;;4998638;28;20500;-61
2021/04/10 06:45:29;;;;;;;46.93;40.50;;;8.70;99.90;;;;;;4998719;28;20886;-61
2021/04/10 06:47:59;;;;;;;52.77;40.57;;;8.60;99.90;;;;;;4997997;28;20473;-61
2021/04/10 06:50:26;;;;;;;48.03;39.73;;;8.60;99.90;;;;;;4998669;28;20527;-61
2021/04/10 06:52:56;;;;;;;46.57;38.80;;;8.70;99.90;;;;;;4998348;28;20463;-61
2021/04/10 06:55:25;;;;;;;47.30;40.57;;;8.70;99.90;;;;;;5000664;28;20506;-61
2021/04/10 06:58:01;;;;;;;51.67;40.83;;;8.70;99.90;;;;;;5017454;28;20584;-61
2021/04/10 07:00:29;;;;;;;49.57;40.60;;;8.70;99.90;;;;;;5002557;28;20558;-62
2021/04/10 07:02:58;;;;;;;52.60;41.90;;;8.80;99.90;;;;;;5011968;28;20575;-62
2021/04/10 07:05:29;;;;;;;45.13;38.80;;;8.90;99.90;;;;;;5007968;28;20496;-61
2021/04/10 07:07:56;;;;;;;48.90;41.20;;;9.00;99.90;;;;;;5013337;28;20463;-61
2021/04/10 07:10:23;;;;;;;46.50;40.53;;;9.10;99.90;;;;;;5016773;28;20455;-61
2021/04/10 07:12:50;;;;;;;47.37;40.60;;;9.10;99.90;;;;;;5016761;28;20448;-61
2021/04/10 07:15:18;;;;;;;47.37;41.67;;;9.20;99.90;;;;;;5017803;28;20707;-61
2021/04/10 07:17:49;;;;;;;48.97;42.43;;;9.10;99.90;;;;;;5017387;28;20460;-61
2021/04/10 07:20:28;;;;;;;49.60;41.90;;;9.30;99.90;;;;;;5017742;28;20892;-61
2021/04/10 07:22:59;;;;;;;47.03;39.33;;;9.50;81.20;;;;;;5001008;28;20492;-62
2021/04/10 07:25:26;;;;;;;47.90;39.90;;;9.70;1.00;;;;;;4998072;28;20447;-61
2021/04/10 07:27:53;;;;;;;54.50;41.60;;;9.90;99.90;;;;;;4998211;28;20997;-61
2021/04/10 07:30:20;;;;;;;46.53;40.23;;;10.10;30.10;;;;;;4998335;28;20476;-61
2021/04/10 07:32:47;;;;;;;48.20;41.30;;;10.30;92.20;;;;;;4997324;28;20492;-61
2021/04/10 07:35:18;;;;;;;45.53;38.97;;;10.30;99.90;;;;;;4997869;28;20894;-60
2021/04/10 07:37:48;;;;;;;41.00;35.73;;;10.20;1.00;;;;;;4998099;28;20786;-60
2021/04/10 07:40:20;;;;;;;46.27;38.77;;;10.20;1.00;;;;;;5014853;28;20490;-60
2021/04/10 07:42:48;;;;;;;42.30;37.30;;;10.20;1.00;;;;;;5017258;28;20797;-60
2021/04/10 07:45:26;;;;;;;40.07;35.23;;;10.20;1.00;;;;;;5017214;28;20487;-60
2021/04/10 07:48:02;;;;;;;37.33;33.40;;;10.20;1.00;;;;;;5017360;28;20749;-59
2021/04/10 07:50:36;;;;;;;40.60;34.30;;;10.10;99.90;;;;;;5017154;28;20870;-59
2021/04/10 07:53:21;;;;;;;40.27;35.90;;;9.90;99.90;;;;;;5007956;28;20560;-59
2021/04/10 07:55:49;;;;;;;39.60;35.30;;;10.10;1.00;;;;;;4996881;28;20460;-59
2021/04/10 07:58:27;;;;;;;39.93;34.50;;;10.30;1.00;;;;;;5000787;28;20514;-58
2021/04/10 08:00:58;;;;;;;37.57;33.53;;;10.30;99.90;;;;;;5017729;28;20513;-58
2021/04/10 08:03:30;;;;;;;40.73;35.80;;;10.40;99.90;;;;;;5013313;28;20503;-58
2021/04/10 08:06:14;;;;;;;37.17;33.23;;;10.40;99.90;;;;;;5007493;28;20475;-58
2021/04/10 08:08:54;;;;;;;37.47;33.67;;;10.40;99.90;;;;;;5016410;28;20455;-57
2021/04/10 08:11:34;;;;;;;34.00;30.20;;;10.60;99.90;;;;;;4999400;28;20485;-58
2021/04/10 08:14:03;;;;;;;34.07;30.63;;;10.70;99.90;;;;;;5001420;28;20452;-57
2021/04/10 08:16:30;;;;;;;33.73;30.37;;;11.10;99.90;;;;;;5001337;28;20893;-54
2021/04/10 08:18:58;;;;;;;33.07;29.77;;;11.40;27.40;;;;;;5018929;28;20442;-57
2021/04/10 08:21:43;;;;;;;34.57;30.97;;;11.50;1.00;;;;;;5020516;28;20755;-52
2021/04/10 08:24:30;;;;;;;33.27;29.80;;;11.50;1.00;;;;;;5020799;28;20940;-52
2021/04/10 08:26:59;;;;;;;37.23;33.43;;;11.60;1.00;;;;;;5023885;28;20471;-54
2021/04/10 08:29:26;;;;;;;34.33;30.73;;;11.80;1.00;;;;;;5040707;28;20477;-53
2021/04/10 08:31:56;;;;;;;35.13;31.53;;;11.90;1.00;;;;;;5039209;28;20839;-48
2021/04/10 08:34:22;;;;;;;44.90;40.20;;;12.00;1.00;;;;;;5040463;28;20458;-47
2021/04/10 08:36:55;;;;;;;49.40;41.60;;;12.30;1.00;;;;;;5029903;28;20897;-52
2021/04/10 08:39:27;;;;;;;34.80;31.40;;;12.50;1.00;;;;;;5014153;28;20465;-47
2021/04/10 08:41:56;;;;;;;40.87;36.60;;;12.50;1.00;;;;;;5032297;28;20467;-45
2021/04/10 08:44:27;;;;;;;36.77;33.13;;;12.20;1.00;;;;;;5039441;28;20828;-47
2021/04/10 08:46:54;;;;;;;45.60;39.90;;;11.90;1.00;;;;;;5027780;28;20466;-51
2021/04/10 08:49:21;;;;;;;39.50;35.40;;;11.60;1.00;;;;;;5020088;28;20780;-48
2021/04/10 08:51:54;;;;;;;40.00;35.70;;;11.50;1.00;;;;;;5020295;28;20939;-49
2021/04/10 08:54:22;;;;;;;38.00;33.87;;;11.40;1.00;;;;;;5020189;28;20434;-49
2021/04/10 08:56:51;;;;;;;41.80;37.30;;;11.40;1.00;;;;;;5020673;28;20463;-47
2021/04/10 08:59:21;;;;;;;41.03;36.73;;;11.20;1.00;;;;;;5020332;28;20490;-50
2021/04/10 09:02:10;;;;;;;64.27;49.30;;;11.10;1.00;;;;;;5020268;28;20494;-47
2021/04/10 09:04:56;;;;;;;55.03;44.10;;;11.20;11.80;;;;;;5008886;28;20491;-45
2021/04/10 09:08:01;;;;;;;59.43;49.20;;;11.10;1.00;;;;;;5018659;28;20491;-47
2021/04/10 09:10:44;;;;;;;37.37;33.37;;;11.20;1.00;;;;;;5010947;28;20471;-50
2021/04/10 09:13:42;;;;;;;40.30;34.90;;;11.20;1.00;;;;;;5020032;28;20448;-49
2021/04/10 09:16:34;;;;;;;47.87;42.60;;;11.30;1.00;;;;;;4964368;28;20490;-45
2021/04/10 09:19:04;;;;;;;41.10;34.83;;;11.30;1.00;;;;;;5020014;28;20522;-44
2021/04/10 09:21:40;;;;;;;41.23;36.60;;;11.30;1.00;;;;;;5019350;28;20460;-43
2021/04/10 09:24:26;;;;;;;41.23;36.73;;;11.10;1.00;;;;;;5019231;28;20499;-48
2021/04/10 09:26:55;;;;;;;43.33;36.53;;;11.30;14.50;;;;;;5019709;28;20464;-48
2021/04/10 09:29:24;;;;;;;43.23;38.60;;;11.40;9.90;;;;;;5019491;28;20917;-46
2021/04/10 09:31:56;;;;;;;43.43;38.60;;;11.50;1.00;;;;;;5019081;28;20499;-52
2021/04/10 09:34:53;;;;;;;48.80;38.47;;;11.80;1.00;;;;;;5019541;28;20467;-45
2021/04/10 09:37:53;;;;;;;40.00;35.20;;;12.20;1.00;;;;;;5019691;28;20464;-50
2021/04/10 09:40:54;;;;;;;42.60;37.40;;;12.50;1.00;;;;;;5013634;28;20539;-49
2021/04/10 09:43:22;;;;;;;43.10;38.60;;;12.80;1.00;;;;;;4976024;28;20491;-47
2021/04/10 09:45:50;;;;;;;42.20;36.07;;;12.90;1.00;;;;;;5022294;28;20896;-49
2021/04/10 09:48:37;;;;;;;42.80;38.23;;;13.00;1.00;;;;;;5018919;28;20464;-44
2021/04/10 09:51:14;;;;;;;42.10;37.70;;;12.90;1.00;;;;;;5018967;28;20495;-50
2021/04/10 09:53:50;;;;;;;39.70;35.30;;;13.00;1.00;;;;;;5018726;28;20502;-50
2021/04/10 09:56:17;;;;;;;41.00;36.57;;;12.70;1.00;;;;;;5018791;28;20964;-49
2021/04/10 09:58:50;;;;;;;38.93;34.73;;;12.60;1.00;;;;;;5019188;28;20769;-46
2021/04/10 10:01:22;;;;;;;42.83;36.10;;;12.50;1.00;;;;;;5019177;28;20907;-47
2021/04/10 10:03:51;;;;;;;40.67;36.53;;;12.10;1.00;;;;;;5012149;28;20950;-50
2021/04/10 10:06:30;;;;;;;38.77;34.70;;;11.60;1.00;;;;;;5016911;28;20472;-50
2021/04/10 10:08:57;;;;;;;40.90;35.57;;;11.20;1.00;;;;;;5012405;28;20495;-50
2021/04/10 10:11:23;;;;;;;38.13;34.13;;;10.90;1.00;;;;;;5017982;28;20463;-46
2021/04/10 10:13:50;;;;;;;43.00;37.03;;;10.90;1.00;;;;;;5018321;28;20471;-53
2021/04/10 10:16:30;;;;;;;42.40;37.80;;;10.90;1.00;;;;;;5018659;28;20456;-49
2021/04/10 10:19:03;;;;;;;48.50;39.17;;;10.90;46.30;;;;;;5013245;28;20513;-46
2021/04/10 10:21:31;;;;;;;43.43;35.80;;;11.00;99.90;;;;;;5009639;28;20889;-44
2021/04/10 10:24:00;;;;;;;40.97;36.47;;;11.20;99.90;;;;;;5008779;28;20485;-48
2021/04/10 10:26:29;;;;;;;42.70;36.10;;;11.30;99.90;;;;;;5009276;28;20564;-49
2021/04/10 10:29:01;;;;;;;41.00;35.93;;;11.50;99.90;;;;;;5015948;28;20754;-46
2021/04/10 10:31:31;;;;;;;44.33;37.87;;;11.50;99.20;;;;;;5017025;28;20472;-45
2021/04/10 10:34:06;;;;;;;44.70;36.93;;;11.70;99.90;;;;;;5021446;28;20464;-45
2021/04/10 10:36:34;;;;;;;43.30;37.20;;;11.80;41.20;;;;;;5037487;28;20620;-47
2021/04/10 10:39:04;;;;;;;40.10;35.77;;;11.90;26.40;;;;;;5028987;28;20468;-52
2021/04/10 10:41:42;;;;;;;40.87;36.47;;;12.00;60.50;;;;;;5017892;28;20852;-49
2021/04/10 10:44:08;;;;;;;42.10;36.93;;;12.00;1.00;;;;;;5018397;28;20491;-53
2021/04/10 10:46:35;;;;;;;39.90;33.33;;;12.10;47.30;;;;;;5018468;28;20525;-48
2021/04/10 10:49:08;;;;;;;40.10;35.83;;;12.00;1.00;;;;;;5036310;28;20466;-54
2021/04/10 10:51:37;;;;;;;40.83;36.47;;;11.90;6.20;;;;;;5035021;28;20463;-51
2021/04/10 10:54:07;;;;;;;39.27;35.13;;;11.70;49.60;;;;;;5018121;28;20867;-49
2021/04/10 10:56:34;;;;;;;39.07;35.00;;;11.70;92.10;;;;;;5023776;28;20978;-48
2021/04/10 10:59:03;;;;;;;39.70;35.60;;;11.60;99.90;;;;;;5038094;28;20892;-55
2021/04/10 11:01:33;;;;;;;42.67;37.97;;;11.60;99.90;;;;;;5036433;28;20438;-55
2021/04/10 11:04:02;;;;;;;38.90;34.70;;;11.50;99.90;;;;;;5016077;28;20491;-57
2021/04/10 11:06:31;;;;;;;42.03;37.43;;;11.60;99.90;;;;;;5015206;28;20464;-58
2021/04/10 11:09:00;;;;;;;38.20;34.27;;;11.70;99.90;;;;;;5017458;28;20467;-58
2021/04/10 11:11:31;;;;;;;37.33;33.37;;;11.70;99.90;;;;;;5017908;28;20467;-58
2021/04/10 11:14:00;;;;;;;31.77;28.37;;;11.80;80.20;;;;;;5017799;28;20467;-59
2021/04/10 11:16:26;;;;;;;25.63;22.63;;;11.90;73.80;;;;;;5017796;28;20769;-58
2021/04/10 11:18:58;;;;;;;24.93;22.40;;;11.80;1.00;;;;;;5018157;28;20960;-58
2021/04/10 11:21:33;;;;;;;26.30;23.70;;;11.80;1.00;;;;;;5017861;28;20526;-61
2021/04/10 11:24:20;;;;;;;23.80;21.40;;;11.80;1.00;;;;;;5022220;28;20597;-58
2021/04/10 11:26:53;;;;;;;26.30;23.70;;;11.70;1.00;;;;;;5011683;28;20463;-58
2021/04/10 11:29:38;;;;;;;25.60;23.17;;;11.70;1.00;;;;;;5029399;28;20459;-58
2021/04/10 11:32:15;;;;;;;26.60;24.00;;;11.70;1.00;;;;;;5022386;28;20958;-59
2021/04/10 11:34:53;;;;;;;29.50;26.60;;;11.70;1.00;;;;;;5017080;28;20460;-59
2021/04/10 11:37:38;;;;;;;35.97;32.27;;;11.70;1.00;;;;;;5001978;28;20753;-59
2021/04/10 11:40:07;;;;;;;38.17;32.17;;;11.80;99.90;;;;;;5015388;28;20459;-59
2021/04/10 11:42:37;;;;;;;36.37;32.57;;;11.70;99.90;;;;;;5016983;28;20562;-59
2021/04/10 11:45:06;;;;;;;34.37;30.77;;;11.50;99.90;;;;;;5016424;28;20491;-59
2021/04/10 11:47:34;;;;;;;35.07;31.57;;;11.50;99.90;;;;;;5002382;28;20961;-59
2021/04/10 11:50:12;;;;;;;35.63;31.90;;;11.50;99.90;;;;;;4996968;28;20476;-59
2021/04/10 11:52:40;;;;;;;37.83;34.00;;;11.50;99.90;;;;;;4997186;28;20468;-59
2021/04/10 11:55:09;;;;;;;39.27;35.30;;;11.50;99.90;;;;;;4996794;28;20465;-60
2021/04/10 11:57:39;;;;;;;41.60;37.10;;;11.50;99.90;;;;;;5010469;28;20488;-60
2021/04/10 12:00:12;;;;;;;45.43;40.83;;;11.60;1.00;;;;;;5017124;28;20464;-61
2021/04/10 12:02:40;;;;;;;45.03;40.40;;;11.40;1.00;;;;;;5013685;28;20491;-58
2021/04/10 12:05:27;;;;;;;41.17;36.70;;;11.20;1.00;;;;;;5014672;28;20464;-59
2021/04/10 12:08:22;;;;;;;37.80;34.07;;;11.10;1.00;;;;;;5017779;28;20467;-59
2021/04/10 12:10:51;;;;;;;38.73;34.67;;;10.90;1.00;;;;;;5018584;28;20558;-59
2021/04/10 12:13:18;;;;;;;33.87;30.13;;;10.80;99.90;;;;;;5018084;28;20456;-60
2021/04/10 12:15:51;;;;;;;34.87;30.40;;;10.60;61.00;;;;;;5017322;28;20463;-60
2021/04/10 12:18:18;;;;;;;32.10;28.77;;;10.40;1.00;;;;;;5017081;28;20522;-60
2021/04/10 12:20:46;;;;;;;31.70;26.50;;;10.20;24.20;;;;;;5017337;28;20467;-60
2021/04/10 12:23:12;;;;;;;31.03;27.53;;;10.00;1.00;;;;;;5016966;28;20924;-60
2021/04/10 12:25:40;;;;;;;29.77;26.77;;;10.00;1.00;;;;;;5017271;28;20468;-60
2021/04/10 12:28:06;;;;;;;31.57;27.70;;;10.00;99.90;;;;;;5017263;28;20904;-59
2021/04/10 12:30:33;;;;;;;36.67;26.80;;;10.10;1.00;;;;;;5016987;28;20464;-60
2021/04/10 12:33:00;;;;;;;27.87;24.97;;;10.30;1.00;;;;;;5016527;28;20488;-60
2021/04/10 12:35:27;;;;;;;28.80;25.77;;;10.40;1.00;;;;;;5017383;28;20525;-59
2021/04/10 12:37:53;;;;;;;27.57;23.27;;;10.50;1.00;;;;;;5016765;28;20471;-60
2021/04/10 12:40:20;;;;;;;25.87;23.17;;;10.60;99.90;;;;;;5017143;28;20456;-60
2021/04/10 12:42:51;;;;;;;25.60;21.30;;;10.60;99.90;;;;;;5017266;28;20468;-59
2021/04/10 12:45:19;;;;;;;28.27;25.33;;;10.70;99.90;;;;;;5017237;28;20468;-60
2021/04/10 12:47:47;;;;;;;27.87;24.93;;;10.50;1.00;;;;;;5016972;28;20771;-59
2021/04/10 12:50:18;;;;;;;29.97;27.00;;;10.40;1.00;;;;;;5014410;28;20472;-60
2021/04/10 12:52:44;;;;;;;30.20;27.10;;;10.30;1.00;;;;;;5015871;28;20466;-60